sensor_id;sensor_type;location;lat;lon;timestamp;P1;durP1;ratioP1;P2;durP2;ratioP2
5871;SDS011;2962;51.312;7.378;2023-03-23T00:01:18;3.57;;;3.27;;
5871;SDS011;2962;51.312;7.378;2023-03-23T00:03:46;4.17;;;3.43;;
5871;SDS011;2962;51.312;7.378;2023-03-23T00:06:19;4.30;;;4.00;;
5871;SDS011;2962;51.312;7.378;2023-03-23T00:08:45;6.80;;;3.40;;
5871;SDS011;2962;51.312;7.378;2023-03-23T00:11:17;10.50;;;4.03;;
5871;SDS011;2962;51.312;7.378;2023-03-23T00:13:45;5.27;;;4.27;;
5871;SDS011;2962;51.312;7.378;2023-03-23T00:16:12;4.37;;;3.97;;
5871;SDS011;2962;51.312;7.378;2023-03-23T00:18:44;5.30;;;4.47;;
5871;SDS011;2962;51.312;7.378;2023-03-23T00:21:17;5.20;;;3.60;;
5871;SDS011;2962;51.312;7.378;2023-03-23T00:23:50;5.37;;;4.87;;
5871;SDS011;2962;51.312;7.378;2023-03-23T00:26:16;4.27;;;3.97;;
5871;SDS011;2962;51.312;7.378;2023-03-23T00:28:41;6.03;;;4.20;;
5871;SDS011;2962;51.312;7.378;2023-03-23T00:31:07;4.10;;;3.80;;
5871;SDS011;2962;51.312;7.378;2023-03-23T00:33:35;10.70;;;4.10;;
5871;SDS011;2962;51.312;7.378;2023-03-23T00:36:05;7.73;;;3.60;;
5871;SDS011;2962;51.312;7.378;2023-03-23T00:38:36;3.83;;;3.60;;
5871;SDS011;2962;51.312;7.378;2023-03-23T00:41:02;4.17;;;3.70;;
5871;SDS011;2962;51.312;7.378;2023-03-23T00:43:29;3.70;;;3.50;;
5871;SDS011;2962;51.312;7.378;2023-03-23T00:45:55;7.50;;;3.10;;
5871;SDS011;2962;51.312;7.378;2023-03-23T00:48:22;3.03;;;2.77;;
5871;SDS011;2962;51.312;7.378;2023-03-23T00:50:48;3.67;;;3.50;;
5871;SDS011;2962;51.312;7.378;2023-03-23T00:53:15;2.90;;;2.80;;
5871;SDS011;2962;51.312;7.378;2023-03-23T00:55:41;5.47;;;3.10;;
5871;SDS011;2962;51.312;7.378;2023-03-23T00:58:07;3.90;;;3.20;;
5871;SDS011;2962;51.312;7.378;2023-03-23T01:00:33;4.33;;;2.87;;
5871;SDS011;2962;51.312;7.378;2023-03-23T01:02:58;5.03;;;2.87;;
5871;SDS011;2962;51.312;7.378;2023-03-23T01:05:23;2.60;;;2.40;;
5871;SDS011;2962;51.312;7.378;2023-03-23T01:07:49;4.30;;;2.53;;
5871;SDS011;2962;51.312;7.378;2023-03-23T01:10:14;3.63;;;2.90;;
5871;SDS011;2962;51.312;7.378;2023-03-23T01:12:43;5.50;;;2.20;;
5871;SDS011;2962;51.312;7.378;2023-03-23T01:15:14;2.00;;;1.90;;
5871;SDS011;2962;51.312;7.378;2023-03-23T01:17:41;3.17;;;2.40;;
5871;SDS011;2962;51.312;7.378;2023-03-23T01:20:07;2.83;;;2.80;;
5871;SDS011;2962;51.312;7.378;2023-03-23T01:22:32;3.33;;;2.27;;
5871;SDS011;2962;51.312;7.378;2023-03-23T01:24:58;2.63;;;2.43;;
5871;SDS011;2962;51.312;7.378;2023-03-23T01:27:23;4.57;;;2.57;;
5871;SDS011;2962;51.312;7.378;2023-03-23T01:29:48;2.20;;;2.00;;
5871;SDS011;2962;51.312;7.378;2023-03-23T01:32:15;2.47;;;2.17;;
5871;SDS011;2962;51.312;7.378;2023-03-23T01:34:41;2.00;;;2.00;;
5871;SDS011;2962;51.312;7.378;2023-03-23T01:37:06;2.00;;;2.00;;
5871;SDS011;2962;51.312;7.378;2023-03-23T01:39:31;2.00;;;2.00;;
5871;SDS011;2962;51.312;7.378;2023-03-23T01:41:56;2.37;;;2.13;;
5871;SDS011;2962;51.312;7.378;2023-03-23T01:46:47;7.83;;;1.37;;
5871;SDS011;2962;51.312;7.378;2023-03-23T01:49:19;2.93;;;2.73;;
5871;SDS011;2962;51.312;7.378;2023-03-23T01:51:49;2.67;;;2.57;;
5871;SDS011;2962;51.312;7.378;2023-03-23T01:54:23;2.40;;;2.20;;
5871;SDS011;2962;51.312;7.378;2023-03-23T01:56:53;2.80;;;2.70;;
5871;SDS011;2962;51.312;7.378;2023-03-23T01:59:23;3.40;;;2.90;;
5871;SDS011;2962;51.312;7.378;2023-03-23T02:01:51;5.57;;;3.37;;
5871;SDS011;2962;51.312;7.378;2023-03-23T02:04:18;4.30;;;2.33;;
5871;SDS011;2962;51.312;7.378;2023-03-23T02:06:46;2.77;;;2.67;;
5871;SDS011;2962;51.312;7.378;2023-03-23T02:09:12;2.63;;;2.53;;
5871;SDS011;2962;51.312;7.378;2023-03-23T02:11:44;3.10;;;2.87;;
5871;SDS011;2962;51.312;7.378;2023-03-23T02:14:10;3.27;;;3.17;;
5871;SDS011;2962;51.312;7.378;2023-03-23T02:19:16;3.23;;;2.97;;
5871;SDS011;2962;51.312;7.378;2023-03-23T02:22:09;6.10;;;3.00;;
5871;SDS011;2962;51.312;7.378;2023-03-23T02:27:52;3.47;;;3.27;;
5871;SDS011;2962;51.312;7.378;2023-03-23T02:36:02;3.40;;;3.30;;
5871;SDS011;2962;51.312;7.378;2023-03-23T02:38:39;4.40;;;3.70;;
5871;SDS011;2962;51.312;7.378;2023-03-23T02:41:06;3.97;;;3.50;;
5871;SDS011;2962;51.312;7.378;2023-03-23T02:43:35;3.97;;;3.60;;
5871;SDS011;2962;51.312;7.378;2023-03-23T02:46:05;4.27;;;3.90;;
5871;SDS011;2962;51.312;7.378;2023-03-23T02:48:33;4.80;;;4.17;;
5871;SDS011;2962;51.312;7.378;2023-03-23T02:50:59;3.93;;;3.60;;
5871;SDS011;2962;51.312;7.378;2023-03-23T02:53:26;4.43;;;4.23;;
5871;SDS011;2962;51.312;7.378;2023-03-23T02:55:54;4.30;;;4.17;;
5871;SDS011;2962;51.312;7.378;2023-03-23T02:58:22;4.70;;;4.30;;
5871;SDS011;2962;51.312;7.378;2023-03-23T03:00:51;4.80;;;4.37;;
5871;SDS011;2962;51.312;7.378;2023-03-23T03:03:18;4.60;;;4.30;;
5871;SDS011;2962;51.312;7.378;2023-03-23T03:08:45;4.03;;;3.93;;
5871;SDS011;2962;51.312;7.378;2023-03-23T03:11:16;4.80;;;4.40;;
5871;SDS011;2962;51.312;7.378;2023-03-23T03:16:44;4.60;;;4.00;;
5871;SDS011;2962;51.312;7.378;2023-03-23T03:19:19;5.33;;;4.80;;
5871;SDS011;2962;51.312;7.378;2023-03-23T03:21:57;3.43;;;3.13;;
5871;SDS011;2962;51.312;7.378;2023-03-23T03:24:25;5.10;;;4.10;;
5871;SDS011;2962;51.312;7.378;2023-03-23T03:26:54;5.43;;;4.67;;
5871;SDS011;2962;51.312;7.378;2023-03-23T03:29:23;4.47;;;4.07;;
5871;SDS011;2962;51.312;7.378;2023-03-23T03:31:54;3.80;;;3.70;;
5871;SDS011;2962;51.312;7.378;2023-03-23T03:34:23;7.17;;;4.03;;
5871;SDS011;2962;51.312;7.378;2023-03-23T03:36:49;4.10;;;3.80;;
5871;SDS011;2962;51.312;7.378;2023-03-23T03:39:17;3.00;;;3.00;;
5871;SDS011;2962;51.312;7.378;2023-03-23T03:41:44;5.27;;;3.40;;
5871;SDS011;2962;51.312;7.378;2023-03-23T03:44:10;3.00;;;2.90;;
5871;SDS011;2962;51.312;7.378;2023-03-23T03:46:36;3.80;;;3.50;;
5871;SDS011;2962;51.312;7.378;2023-03-23T03:49:03;3.23;;;3.03;;
5871;SDS011;2962;51.312;7.378;2023-03-23T03:51:30;3.77;;;3.57;;
5871;SDS011;2962;51.312;7.378;2023-03-23T03:53:57;3.33;;;3.23;;
5871;SDS011;2962;51.312;7.378;2023-03-23T03:56:23;2.73;;;2.63;;
5871;SDS011;2962;51.312;7.378;2023-03-23T03:58:49;3.10;;;2.90;;
5871;SDS011;2962;51.312;7.378;2023-03-23T04:01:16;3.70;;;3.40;;
5871;SDS011;2962;51.312;7.378;2023-03-23T04:03:43;2.70;;;2.50;;
5871;SDS011;2962;51.312;7.378;2023-03-23T04:06:09;2.50;;;2.50;;
5871;SDS011;2962;51.312;7.378;2023-03-23T04:08:35;3.47;;;3.27;;
5871;SDS011;2962;51.312;7.378;2023-03-23T04:11:02;2.60;;;2.50;;
5871;SDS011;2962;51.312;7.378;2023-03-23T04:13:29;4.27;;;3.07;;
5871;SDS011;2962;51.312;7.378;2023-03-23T04:15:54;2.40;;;2.30;;
5871;SDS011;2962;51.312;7.378;2023-03-23T04:18:20;2.47;;;2.37;;
5871;SDS011;2962;51.312;7.378;2023-03-23T04:20:46;4.20;;;2.63;;
5871;SDS011;2962;51.312;7.378;2023-03-23T04:23:14;2.80;;;2.60;;
5871;SDS011;2962;51.312;7.378;2023-03-23T04:25:44;4.77;;;2.20;;
5871;SDS011;2962;51.312;7.378;2023-03-23T04:28:14;2.63;;;2.43;;
5871;SDS011;2962;51.312;7.378;2023-03-23T04:30:41;2.30;;;2.17;;
5871;SDS011;2962;51.312;7.378;2023-03-23T04:33:08;2.53;;;2.33;;
5871;SDS011;2962;51.312;7.378;2023-03-23T04:35:39;2.20;;;2.10;;
5871;SDS011;2962;51.312;7.378;2023-03-23T04:38:05;2.33;;;2.23;;
5871;SDS011;2962;51.312;7.378;2023-03-23T04:40:32;2.60;;;2.40;;
5871;SDS011;2962;51.312;7.378;2023-03-23T04:43:01;2.10;;;2.10;;
5871;SDS011;2962;51.312;7.378;2023-03-23T04:45:30;4.73;;;2.67;;
5871;SDS011;2962;51.312;7.378;2023-03-23T04:47:56;1.70;;;1.70;;
5871;SDS011;2962;51.312;7.378;2023-03-23T04:50:26;2.23;;;2.10;;
5871;SDS011;2962;51.312;7.378;2023-03-23T04:52:56;2.10;;;2.10;;
5871;SDS011;2962;51.312;7.378;2023-03-23T04:55:22;1.90;;;1.90;;
5871;SDS011;2962;51.312;7.378;2023-03-23T04:57:49;1.90;;;1.80;;
5871;SDS011;2962;51.312;7.378;2023-03-23T05:00:15;1.70;;;1.70;;
5871;SDS011;2962;51.312;7.378;2023-03-23T05:02:42;2.80;;;2.57;;
5871;SDS011;2962;51.312;7.378;2023-03-23T05:05:10;1.93;;;1.70;;
5871;SDS011;2962;51.312;7.378;2023-03-23T05:07:37;2.37;;;2.17;;
5871;SDS011;2962;51.312;7.378;2023-03-23T05:10:03;1.80;;;1.77;;
5871;SDS011;2962;51.312;7.378;2023-03-23T05:12:29;2.37;;;2.13;;
5871;SDS011;2962;51.312;7.378;2023-03-23T05:14:54;1.30;;;1.30;;
5871;SDS011;2962;51.312;7.378;2023-03-23T05:17:20;2.53;;;2.33;;
5871;SDS011;2962;51.312;7.378;2023-03-23T05:19:45;2.13;;;2.13;;
5871;SDS011;2962;51.312;7.378;2023-03-23T05:22:13;2.20;;;2.10;;
5871;SDS011;2962;51.312;7.378;2023-03-23T05:24:39;2.17;;;2.17;;
5871;SDS011;2962;51.312;7.378;2023-03-23T05:27:04;6.03;;;2.20;;
5871;SDS011;2962;51.312;7.378;2023-03-23T05:29:32;2.67;;;2.50;;
5871;SDS011;2962;51.312;7.378;2023-03-23T05:32:00;2.20;;;1.60;;
5871;SDS011;2962;51.312;7.378;2023-03-23T05:34:27;2.53;;;2.43;;
5871;SDS011;2962;51.312;7.378;2023-03-23T05:36:53;2.10;;;2.10;;
5871;SDS011;2962;51.312;7.378;2023-03-23T05:39:20;2.10;;;2.10;;
5871;SDS011;2962;51.312;7.378;2023-03-23T05:41:46;2.37;;;2.37;;
5871;SDS011;2962;51.312;7.378;2023-03-23T05:44:11;3.50;;;2.27;;
5871;SDS011;2962;51.312;7.378;2023-03-23T05:46:38;2.77;;;2.60;;
5871;SDS011;2962;51.312;7.378;2023-03-23T05:49:03;1.70;;;1.70;;
5871;SDS011;2962;51.312;7.378;2023-03-23T05:51:29;3.37;;;3.10;;
5871;SDS011;2962;51.312;7.378;2023-03-23T05:53:54;4.53;;;2.33;;
5871;SDS011;2962;51.312;7.378;2023-03-23T05:56:20;2.63;;;2.50;;
5871;SDS011;2962;51.312;7.378;2023-03-23T05:58:46;1.67;;;1.67;;
5871;SDS011;2962;51.312;7.378;2023-03-23T06:01:11;2.30;;;2.20;;
5871;SDS011;2962;51.312;7.378;2023-03-23T06:03:39;2.53;;;2.37;;
5871;SDS011;2962;51.312;7.378;2023-03-23T06:06:04;2.23;;;2.13;;
5871;SDS011;2962;51.312;7.378;2023-03-23T06:08:30;1.87;;;1.87;;
5871;SDS011;2962;51.312;7.378;2023-03-23T06:10:55;2.20;;;2.10;;
5871;SDS011;2962;51.312;7.378;2023-03-23T06:13:21;2.17;;;2.17;;
5871;SDS011;2962;51.312;7.378;2023-03-23T06:15:47;2.10;;;2.07;;
5871;SDS011;2962;51.312;7.378;2023-03-23T06:18:12;3.37;;;2.17;;
5871;SDS011;2962;51.312;7.378;2023-03-23T06:20:38;2.50;;;2.30;;
5871;SDS011;2962;51.312;7.378;2023-03-23T06:23:04;2.10;;;2.10;;
5871;SDS011;2962;51.312;7.378;2023-03-23T06:25:29;2.23;;;2.23;;
5871;SDS011;2962;51.312;7.378;2023-03-23T06:27:56;2.97;;;2.23;;
5871;SDS011;2962;51.312;7.378;2023-03-23T06:30:22;3.83;;;2.63;;
5871;SDS011;2962;51.312;7.378;2023-03-23T06:32:48;2.07;;;2.07;;
5871;SDS011;2962;51.312;7.378;2023-03-23T06:35:14;1.97;;;1.87;;
5871;SDS011;2962;51.312;7.378;2023-03-23T06:37:40;2.47;;;2.28;;
5871;SDS011;2962;51.312;7.378;2023-03-23T06:40:05;2.33;;;2.23;;
5871;SDS011;2962;51.312;7.378;2023-03-23T06:42:31;2.07;;;2.07;;
5871;SDS011;2962;51.312;7.378;2023-03-23T06:44:57;2.00;;;2.00;;
5871;SDS011;2962;51.312;7.378;2023-03-23T06:47:23;2.20;;;2.10;;
5871;SDS011;2962;51.312;7.378;2023-03-23T06:49:49;1.67;;;1.67;;
5871;SDS011;2962;51.312;7.378;2023-03-23T06:52:14;3.33;;;1.93;;
5871;SDS011;2962;51.312;7.378;2023-03-23T06:54:40;2.43;;;2.07;;
5871;SDS011;2962;51.312;7.378;2023-03-23T06:57:06;1.80;;;1.70;;
5871;SDS011;2962;51.312;7.378;2023-03-23T06:59:32;1.63;;;1.53;;
5871;SDS011;2962;51.312;7.378;2023-03-23T07:01:57;2.00;;;2.00;;
5871;SDS011;2962;51.312;7.378;2023-03-23T07:04:23;2.77;;;1.80;;
5871;SDS011;2962;51.312;7.378;2023-03-23T07:06:48;1.83;;;1.73;;
5871;SDS011;2962;51.312;7.378;2023-03-23T07:09:14;1.90;;;1.80;;
5871;SDS011;2962;51.312;7.378;2023-03-23T07:11:39;1.30;;;1.20;;
5871;SDS011;2962;51.312;7.378;2023-03-23T07:14:04;2.23;;;1.60;;
5871;SDS011;2962;51.312;7.378;2023-03-23T07:16:29;2.00;;;1.90;;
5871;SDS011;2962;51.312;7.378;2023-03-23T07:18:56;1.60;;;1.50;;
5871;SDS011;2962;51.312;7.378;2023-03-23T07:21:21;3.67;;;1.57;;
5871;SDS011;2962;51.312;7.378;2023-03-23T07:23:46;2.93;;;1.97;;
5871;SDS011;2962;51.312;7.378;2023-03-23T07:26:12;3.30;;;1.87;;
5871;SDS011;2962;51.312;7.378;2023-03-23T07:28:37;1.80;;;1.70;;
5871;SDS011;2962;51.312;7.378;2023-03-23T07:31:04;5.43;;;1.60;;
5871;SDS011;2962;51.312;7.378;2023-03-23T07:33:30;1.63;;;1.60;;
5871;SDS011;2962;51.312;7.378;2023-03-23T07:35:58;2.07;;;1.80;;
5871;SDS011;2962;51.312;7.378;2023-03-23T07:38:25;1.27;;;0.97;;
5871;SDS011;2962;51.312;7.378;2023-03-23T07:40:52;1.90;;;1.80;;
5871;SDS011;2962;51.312;7.378;2023-03-23T07:43:17;1.53;;;1.43;;
5871;SDS011;2962;51.312;7.378;2023-03-23T07:45:44;2.90;;;1.53;;
5871;SDS011;2962;51.312;7.378;2023-03-23T07:48:09;1.33;;;1.30;;
5871;SDS011;2962;51.312;7.378;2023-03-23T07:50:34;2.23;;;2.10;;
5871;SDS011;2962;51.312;7.378;2023-03-23T07:53:02;1.50;;;1.47;;
5871;SDS011;2962;51.312;7.378;2023-03-23T07:55:27;4.30;;;1.93;;
5871;SDS011;2962;51.312;7.378;2023-03-23T07:57:53;1.70;;;1.60;;
5871;SDS011;2962;51.312;7.378;2023-03-23T08:00:20;1.83;;;1.70;;
5871;SDS011;2962;51.312;7.378;2023-03-23T08:02:49;1.73;;;1.60;;
5871;SDS011;2962;51.312;7.378;2023-03-23T08:05:21;1.60;;;1.50;;
5871;SDS011;2962;51.312;7.378;2023-03-23T08:07:47;2.00;;;1.70;;
5871;SDS011;2962;51.312;7.378;2023-03-23T08:10:13;1.60;;;1.57;;
5871;SDS011;2962;51.312;7.378;2023-03-23T08:12:41;2.80;;;1.97;;
5871;SDS011;2962;51.312;7.378;2023-03-23T08:15:07;2.30;;;1.60;;
5871;SDS011;2962;51.312;7.378;2023-03-23T08:17:37;2.93;;;1.80;;
5871;SDS011;2962;51.312;7.378;2023-03-23T08:20:03;1.67;;;1.67;;
5871;SDS011;2962;51.312;7.378;2023-03-23T08:22:35;1.60;;;1.50;;
5871;SDS011;2962;51.312;7.378;2023-03-23T08:25:03;2.70;;;1.60;;
5871;SDS011;2962;51.312;7.378;2023-03-23T08:27:31;1.63;;;1.17;;
5871;SDS011;2962;51.312;7.378;2023-03-23T08:29:56;2.77;;;1.53;;
5871;SDS011;2962;51.312;7.378;2023-03-23T08:32:22;1.80;;;1.70;;
5871;SDS011;2962;51.312;7.378;2023-03-23T08:34:47;1.30;;;1.30;;
5871;SDS011;2962;51.312;7.378;2023-03-23T08:37:13;1.90;;;1.10;;
5871;SDS011;2962;51.312;7.378;2023-03-23T08:39:39;2.40;;;1.40;;
5871;SDS011;2962;51.312;7.378;2023-03-23T08:42:04;2.33;;;1.03;;
5871;SDS011;2962;51.312;7.378;2023-03-23T08:44:30;1.23;;;1.10;;
5871;SDS011;2962;51.312;7.378;2023-03-23T08:46:55;1.43;;;1.43;;
5871;SDS011;2962;51.312;7.378;2023-03-23T08:49:22;3.10;;;1.37;;
5871;SDS011;2962;51.312;7.378;2023-03-23T08:51:48;2.93;;;1.60;;
5871;SDS011;2962;51.312;7.378;2023-03-23T08:54:13;3.70;;;1.50;;
5871;SDS011;2962;51.312;7.378;2023-03-23T08:56:39;2.70;;;1.40;;
5871;SDS011;2962;51.312;7.378;2023-03-23T08:59:04;1.53;;;1.50;;
5871;SDS011;2962;51.312;7.378;2023-03-23T09:01:29;6.53;;;1.67;;
5871;SDS011;2962;51.312;7.378;2023-03-23T09:03:55;2.10;;;1.20;;
5871;SDS011;2962;51.312;7.378;2023-03-23T09:06:20;1.83;;;1.07;;
5871;SDS011;2962;51.312;7.378;2023-03-23T09:08:46;3.07;;;1.57;;
5871;SDS011;2962;51.312;7.378;2023-03-23T09:11:11;1.10;;;1.10;;
5871;SDS011;2962;51.312;7.378;2023-03-23T09:13:37;1.57;;;1.47;;
5871;SDS011;2962;51.312;7.378;2023-03-23T09:16:04;2.40;;;1.20;;
5871;SDS011;2962;51.312;7.378;2023-03-23T09:18:31;3.13;;;1.40;;
5871;SDS011;2962;51.312;7.378;2023-03-23T09:20:57;1.53;;;1.33;;
5871;SDS011;2962;51.312;7.378;2023-03-23T09:23:25;1.10;;;1.10;;
5871;SDS011;2962;51.312;7.378;2023-03-23T09:25:51;2.63;;;1.30;;
5871;SDS011;2962;51.312;7.378;2023-03-23T09:28:16;1.83;;;1.73;;
5871;SDS011;2962;51.312;7.378;2023-03-23T09:30:42;3.57;;;2.10;;
5871;SDS011;2962;51.312;7.378;2023-03-23T09:33:09;2.77;;;1.10;;
5871;SDS011;2962;51.312;7.378;2023-03-23T09:35:35;5.67;;;1.37;;
5871;SDS011;2962;51.312;7.378;2023-03-23T09:38:03;2.67;;;1.70;;
5871;SDS011;2962;51.312;7.378;2023-03-23T09:48:45;2.27;;;1.20;;
5871;SDS011;2962;51.312;7.378;2023-03-23T09:51:19;1.70;;;1.27;;
5871;SDS011;2962;51.312;7.378;2023-03-23T09:53:55;3.13;;;1.40;;
5871;SDS011;2962;51.312;7.378;2023-03-23T09:56:26;4.53;;;1.33;;
5871;SDS011;2962;51.312;7.378;2023-03-23T09:58:59;7.07;;;1.43;;
5871;SDS011;2962;51.312;7.378;2023-03-23T10:01:31;10.90;;;1.70;;
5871;SDS011;2962;51.312;7.378;2023-03-23T10:04:02;1.40;;;1.30;;
5871;SDS011;2962;51.312;7.378;2023-03-23T10:06:32;4.63;;;1.80;;
5871;SDS011;2962;51.312;7.378;2023-03-23T10:08:58;3.17;;;1.73;;
5871;SDS011;2962;51.312;7.378;2023-03-23T10:17:07;3.57;;;1.50;;
5871;SDS011;2962;51.312;7.378;2023-03-23T10:19:50;2.40;;;1.13;;
5871;SDS011;2962;51.312;7.378;2023-03-23T10:22:26;2.30;;;1.37;;
5871;SDS011;2962;51.312;7.378;2023-03-23T10:25:02;2.77;;;1.27;;
5871;SDS011;2962;51.312;7.378;2023-03-23T10:30:33;9.53;;;1.37;;
5871;SDS011;2962;51.312;7.378;2023-03-23T10:33:03;1.90;;;1.00;;
5871;SDS011;2962;51.312;7.378;2023-03-23T10:35:34;2.60;;;1.37;;
5871;SDS011;2962;51.312;7.378;2023-03-23T10:38:05;2.40;;;1.50;;
5871;SDS011;2962;51.312;7.378;2023-03-23T10:40:43;2.33;;;1.10;;
5871;SDS011;2962;51.312;7.378;2023-03-23T10:43:21;4.00;;;1.53;;
5871;SDS011;2962;51.312;7.378;2023-03-23T10:45:51;1.40;;;1.00;;
5871;SDS011;2962;51.312;7.378;2023-03-23T10:48:30;3.97;;;1.70;;
5871;SDS011;2962;51.312;7.378;2023-03-23T10:51:00;5.97;;;1.70;;
5871;SDS011;2962;51.312;7.378;2023-03-23T10:53:32;2.30;;;1.20;;
5871;SDS011;2962;51.312;7.378;2023-03-23T10:56:01;10.47;;;2.93;;
5871;SDS011;2962;51.312;7.378;2023-03-23T10:58:30;2.43;;;1.00;;
5871;SDS011;2962;51.312;7.378;2023-03-23T11:00:59;9.20;;;5.27;;
5871;SDS011;2962;51.312;7.378;2023-03-23T11:03:29;5.87;;;2.07;;
5871;SDS011;2962;51.312;7.378;2023-03-23T11:05:59;1.47;;;1.37;;
5871;SDS011;2962;51.312;7.378;2023-03-23T11:08:29;5.03;;;1.63;;
5871;SDS011;2962;51.312;7.378;2023-03-23T11:11:08;3.80;;;1.40;;
5871;SDS011;2962;51.312;7.378;2023-03-23T11:13:37;10.90;;;1.67;;
5871;SDS011;2962;51.312;7.378;2023-03-23T11:16:05;1.43;;;1.23;;
5871;SDS011;2962;51.312;7.378;2023-03-23T11:18:37;1.00;;;1.00;;
5871;SDS011;2962;51.312;7.378;2023-03-23T11:21:11;1.13;;;1.13;;
5871;SDS011;2962;51.312;7.378;2023-03-23T11:23:39;6.07;;;1.57;;
5871;SDS011;2962;51.312;7.378;2023-03-23T11:26:14;0.83;;;0.83;;
5871;SDS011;2962;51.312;7.378;2023-03-23T11:28:52;0.57;;;0.57;;
5871;SDS011;2962;51.312;7.378;2023-03-23T11:31:21;0.70;;;0.70;;
5871;SDS011;2962;51.312;7.378;2023-03-23T11:33:51;2.33;;;1.00;;
5871;SDS011;2962;51.312;7.378;2023-03-23T11:36:17;1.33;;;1.33;;
5871;SDS011;2962;51.312;7.378;2023-03-23T11:38:44;2.40;;;1.60;;
5871;SDS011;2962;51.312;7.378;2023-03-23T11:41:11;2.23;;;2.13;;
5871;SDS011;2962;51.312;7.378;2023-03-23T11:43:39;5.97;;;2.47;;
5871;SDS011;2962;51.312;7.378;2023-03-23T11:46:11;2.57;;;2.57;;
5871;SDS011;2962;51.312;7.378;2023-03-23T11:49:00;2.33;;;2.27;;
5871;SDS011;2962;51.312;7.378;2023-03-23T11:51:40;7.57;;;2.50;;
5871;SDS011;2962;51.312;7.378;2023-03-23T11:56:37;2.67;;;2.30;;
5871;SDS011;2962;51.312;7.378;2023-03-23T11:59:37;2.10;;;2.07;;
5871;SDS011;2962;51.312;7.378;2023-03-23T12:04:37;3.40;;;3.30;;
5871;SDS011;2962;51.312;7.378;2023-03-23T12:10:00;3.23;;;3.10;;
5871;SDS011;2962;51.312;7.378;2023-03-23T12:12:59;4.40;;;4.30;;
5871;SDS011;2962;51.312;7.378;2023-03-23T12:15:52;2.50;;;2.50;;
5871;SDS011;2962;51.312;7.378;2023-03-23T12:21:57;6.00;;;2.33;;
5871;SDS011;2962;51.312;7.378;2023-03-23T12:24:44;2.40;;;2.30;;
5871;SDS011;2962;51.312;7.378;2023-03-23T12:30:15;3.87;;;3.53;;
5871;SDS011;2962;51.312;7.378;2023-03-23T12:32:54;3.50;;;3.30;;
5871;SDS011;2962;51.312;7.378;2023-03-23T12:35:28;3.83;;;3.70;;
5871;SDS011;2962;51.312;7.378;2023-03-23T12:41:02;7.13;;;5.93;;
5871;SDS011;2962;51.312;7.378;2023-03-23T12:44:00;5.47;;;5.20;;
5871;SDS011;2962;51.312;7.378;2023-03-23T12:51:49;11.40;;;8.43;;
5871;SDS011;2962;51.312;7.378;2023-03-23T12:54:23;12.23;;;9.83;;
5871;SDS011;2962;51.312;7.378;2023-03-23T12:57:01;8.57;;;7.40;;
5871;SDS011;2962;51.312;7.378;2023-03-23T12:59:36;8.00;;;7.20;;
5871;SDS011;2962;51.312;7.378;2023-03-23T13:04:43;10.77;;;7.73;;
5871;SDS011;2962;51.312;7.378;2023-03-23T13:07:14;8.43;;;7.53;;
5871;SDS011;2962;51.312;7.378;2023-03-23T13:12:15;7.00;;;6.50;;
5871;SDS011;2962;51.312;7.378;2023-03-23T13:17:43;10.73;;;8.27;;
5871;SDS011;2962;51.312;7.378;2023-03-23T13:23:18;8.17;;;6.90;;
5871;SDS011;2962;51.312;7.378;2023-03-23T13:25:54;9.10;;;6.93;;
5871;SDS011;2962;51.312;7.378;2023-03-23T13:28:28;7.13;;;6.43;;
5871;SDS011;2962;51.312;7.378;2023-03-23T13:30:57;8.03;;;7.33;;
5871;SDS011;2962;51.312;7.378;2023-03-23T13:33:36;8.47;;;7.73;;
5871;SDS011;2962;51.312;7.378;2023-03-23T13:36:12;7.67;;;6.90;;
5871;SDS011;2962;51.312;7.378;2023-03-23T13:38:44;9.73;;;7.23;;
5871;SDS011;2962;51.312;7.378;2023-03-23T13:41:13;8.70;;;6.47;;
5871;SDS011;2962;51.312;7.378;2023-03-23T13:43:41;7.93;;;7.13;;
5871;SDS011;2962;51.312;7.378;2023-03-23T13:48:49;12.83;;;8.87;;
5871;SDS011;2962;51.312;7.378;2023-03-23T13:51:46;8.83;;;7.17;;
5871;SDS011;2962;51.312;7.378;2023-03-23T13:57:52;10.10;;;7.60;;
5871;SDS011;2962;51.312;7.378;2023-03-23T14:02:49;13.77;;;9.37;;
5871;SDS011;2962;51.312;7.378;2023-03-23T14:07:57;10.30;;;9.40;;
5871;SDS011;2962;51.312;7.378;2023-03-23T14:10:35;11.73;;;9.33;;
5871;SDS011;2962;51.312;7.378;2023-03-23T14:13:20;11.17;;;9.97;;
5871;SDS011;2962;51.312;7.378;2023-03-23T14:15:59;12.23;;;9.60;;
5871;SDS011;2962;51.312;7.378;2023-03-23T14:18:35;9.50;;;8.67;;
5871;SDS011;2962;51.312;7.378;2023-03-23T14:21:03;14.47;;;10.80;;
5871;SDS011;2962;51.312;7.378;2023-03-23T14:23:30;11.60;;;10.17;;
5871;SDS011;2962;51.312;7.378;2023-03-23T14:25:59;9.00;;;7.77;;
5871;SDS011;2962;51.312;7.378;2023-03-23T14:28:35;9.93;;;6.53;;
5871;SDS011;2962;51.312;7.378;2023-03-23T14:31:03;6.17;;;5.57;;
5871;SDS011;2962;51.312;7.378;2023-03-23T14:33:28;4.47;;;4.07;;
5871;SDS011;2962;51.312;7.378;2023-03-23T14:35:56;9.40;;;6.23;;
5871;SDS011;2962;51.312;7.378;2023-03-23T14:38:23;5.97;;;5.43;;
5871;SDS011;2962;51.312;7.378;2023-03-23T14:40:53;5.63;;;4.97;;
5871;SDS011;2962;51.312;7.378;2023-03-23T14:43:19;9.40;;;5.00;;
5871;SDS011;2962;51.312;7.378;2023-03-23T14:45:49;6.03;;;5.27;;
5871;SDS011;2962;51.312;7.378;2023-03-23T14:48:17;3.80;;;3.60;;
5871;SDS011;2962;51.312;7.378;2023-03-23T14:50:56;4.97;;;4.30;;
5871;SDS011;2962;51.312;7.378;2023-03-23T14:55:51;3.10;;;2.87;;
5871;SDS011;2962;51.312;7.378;2023-03-23T14:58:21;2.70;;;2.47;;
5871;SDS011;2962;51.312;7.378;2023-03-23T15:00:57;4.57;;;3.20;;
5871;SDS011;2962;51.312;7.378;2023-03-23T15:03:26;3.07;;;2.43;;
5871;SDS011;2962;51.312;7.378;2023-03-23T15:05:56;3.80;;;2.27;;
5871;SDS011;2962;51.312;7.378;2023-03-23T15:08:26;5.03;;;1.60;;
5871;SDS011;2962;51.312;7.378;2023-03-23T15:11:02;5.63;;;2.00;;
5871;SDS011;2962;51.312;7.378;2023-03-23T15:13:32;5.20;;;1.63;;
5871;SDS011;2962;51.312;7.378;2023-03-23T15:18:47;4.65;;;2.00;;
5871;SDS011;2962;51.312;7.378;2023-03-23T15:21:21;7.03;;;2.33;;
5871;SDS011;2962;51.312;7.378;2023-03-23T15:23:53;2.17;;;2.03;;
5871;SDS011;2962;51.312;7.378;2023-03-23T15:26:52;19.93;;;11.70;;
5871;SDS011;2962;51.312;7.378;2023-03-23T15:29:15;3.60;;;3.40;;
5871;SDS011;2962;51.312;7.378;2023-03-23T15:31:47;3.70;;;3.10;;
5871;SDS011;2962;51.312;7.378;2023-03-23T15:34:19;4.90;;;3.03;;
5871;SDS011;2962;51.312;7.378;2023-03-23T15:36:55;8.80;;;3.97;;
5871;SDS011;2962;51.312;7.378;2023-03-23T15:39:25;3.73;;;3.33;;
5871;SDS011;2962;51.312;7.378;2023-03-23T15:41:51;5.40;;;2.33;;
5871;SDS011;2962;51.312;7.378;2023-03-23T15:44:25;8.03;;;3.27;;
5871;SDS011;2962;51.312;7.378;2023-03-23T15:47:13;2.90;;;2.70;;
5871;SDS011;2962;51.312;7.378;2023-03-23T15:49:45;4.77;;;2.90;;
5871;SDS011;2962;51.312;7.378;2023-03-23T15:52:11;3.80;;;3.50;;
5871;SDS011;2962;51.312;7.378;2023-03-23T15:54:38;3.63;;;3.33;;
5871;SDS011;2962;51.312;7.378;2023-03-23T15:57:04;5.50;;;3.17;;
5871;SDS011;2962;51.312;7.378;2023-03-23T15:59:29;4.13;;;3.90;;
5871;SDS011;2962;51.312;7.378;2023-03-23T16:01:54;5.30;;;4.87;;
5871;SDS011;2962;51.312;7.378;2023-03-23T16:04:21;3.90;;;2.97;;
5871;SDS011;2962;51.312;7.378;2023-03-23T16:06:47;3.50;;;3.20;;
5871;SDS011;2962;51.312;7.378;2023-03-23T16:09:14;4.33;;;2.30;;
5871;SDS011;2962;51.312;7.378;2023-03-23T16:11:41;3.00;;;2.90;;
5871;SDS011;2962;51.312;7.378;2023-03-23T16:14:06;5.47;;;3.00;;
5871;SDS011;2962;51.312;7.378;2023-03-23T16:16:45;3.60;;;3.37;;
5871;SDS011;2962;51.312;7.378;2023-03-23T16:19:13;2.93;;;2.80;;
5871;SDS011;2962;51.312;7.378;2023-03-23T16:21:39;2.93;;;2.33;;
5871;SDS011;2962;51.312;7.378;2023-03-23T16:24:06;2.73;;;2.50;;
5871;SDS011;2962;51.312;7.378;2023-03-23T16:26:32;4.73;;;2.20;;
5871;SDS011;2962;51.312;7.378;2023-03-23T16:28:57;2.83;;;2.67;;
5871;SDS011;2962;51.312;7.378;2023-03-23T16:31:23;4.00;;;2.60;;
5871;SDS011;2962;51.312;7.378;2023-03-23T16:33:49;5.50;;;2.40;;
5871;SDS011;2962;51.312;7.378;2023-03-23T16:36:14;3.70;;;2.30;;
5871;SDS011;2962;51.312;7.378;2023-03-23T16:38:40;3.27;;;2.03;;
5871;SDS011;2962;51.312;7.378;2023-03-23T16:41:06;2.67;;;2.00;;
5871;SDS011;2962;51.312;7.378;2023-03-23T16:43:32;1.80;;;1.70;;
5871;SDS011;2962;51.312;7.378;2023-03-23T16:45:57;2.57;;;2.37;;
5871;SDS011;2962;51.312;7.378;2023-03-23T16:48:23;7.20;;;2.03;;
5871;SDS011;2962;51.312;7.378;2023-03-23T16:50:48;2.20;;;1.63;;
5871;SDS011;2962;51.312;7.378;2023-03-23T16:53:15;7.30;;;2.03;;